sensor_id;sensor_type;location;lat;lon;timestamp;P1;durP1;ratioP1;P2;durP2;ratioP2
35993;SDS011;22066;54.274;18.578;2022-11-03T00:01:57;11.80;;;3.47;;
35993;SDS011;22066;54.274;18.578;2022-11-03T00:04:23;6.30;;;2.22;;
35993;SDS011;22066;54.274;18.578;2022-11-03T00:06:50;7.13;;;2.83;;
35993;SDS011;22066;54.274;18.578;2022-11-03T00:09:16;9.68;;;2.20;;
35993;SDS011;22066;54.274;18.578;2022-11-03T00:11:43;7.97;;;2.35;;
35993;SDS011;22066;54.274;18.578;2022-11-03T00:14:10;6.43;;;2.15;;
35993;SDS011;22066;54.274;18.578;2022-11-03T00:16:37;9.38;;;3.13;;
35993;SDS011;22066;54.274;18.578;2022-11-03T00:19:03;9.85;;;2.53;;
35993;SDS011;22066;54.274;18.578;2022-11-03T00:21:29;10.80;;;3.05;;
35993;SDS011;22066;54.274;18.578;2022-11-03T00:23:55;13.77;;;3.47;;
35993;SDS011;22066;54.274;18.578;2022-11-03T00:26:23;16.33;;;4.00;;
35993;SDS011;22066;54.274;18.578;2022-11-03T00:28:50;19.03;;;4.47;;
35993;SDS011;22066;54.274;18.578;2022-11-03T00:33:43;13.57;;;3.38;;
35993;SDS011;22066;54.274;18.578;2022-11-03T00:36:10;10.88;;;3.00;;
35993;SDS011;22066;54.274;18.578;2022-11-03T00:38:37;9.13;;;3.03;;
35993;SDS011;22066;54.274;18.578;2022-11-03T00:41:03;8.48;;;3.22;;
35993;SDS011;22066;54.274;18.578;2022-11-03T00:43:32;10.13;;;3.45;;
35993;SDS011;22066;54.274;18.578;2022-11-03T00:45:58;9.18;;;3.35;;
35993;SDS011;22066;54.274;18.578;2022-11-03T00:48:24;7.50;;;3.05;;
35993;SDS011;22066;54.274;18.578;2022-11-03T00:50:53;12.48;;;3.58;;
35993;SDS011;22066;54.274;18.578;2022-11-03T00:53:19;6.50;;;1.75;;
35993;SDS011;22066;54.274;18.578;2022-11-03T00:55:48;4.00;;;1.67;;
35993;SDS011;22066;54.274;18.578;2022-11-03T00:58:15;4.47;;;1.65;;
35993;SDS011;22066;54.274;18.578;2022-11-03T01:00:41;5.10;;;1.98;;
35993;SDS011;22066;54.274;18.578;2022-11-03T01:03:07;6.40;;;1.50;;
35993;SDS011;22066;54.274;18.578;2022-11-03T01:05:33;5.75;;;1.88;;
35993;SDS011;22066;54.274;18.578;2022-11-03T01:08:22;5.22;;;1.40;;
35993;SDS011;22066;54.274;18.578;2022-11-03T01:10:48;3.90;;;1.30;;
35993;SDS011;22066;54.274;18.578;2022-11-03T01:13:33;8.02;;;1.27;;
35993;SDS011;22066;54.274;18.578;2022-11-03T01:15:59;4.97;;;1.35;;
35993;SDS011;22066;54.274;18.578;2022-11-03T01:18:25;6.80;;;1.73;;
35993;SDS011;22066;54.274;18.578;2022-11-03T01:20:54;5.38;;;2.03;;
35993;SDS011;22066;54.274;18.578;2022-11-03T01:23:21;4.82;;;1.50;;
35993;SDS011;22066;54.274;18.578;2022-11-03T01:25:47;6.15;;;1.55;;
35993;SDS011;22066;54.274;18.578;2022-11-03T01:28:13;7.13;;;1.70;;
35993;SDS011;22066;54.274;18.578;2022-11-03T01:30:39;2.33;;;1.20;;
35993;SDS011;22066;54.274;18.578;2022-11-03T01:33:05;2.97;;;1.25;;
35993;SDS011;22066;54.274;18.578;2022-11-03T01:35:31;6.05;;;1.67;;
35993;SDS011;22066;54.274;18.578;2022-11-03T01:37:57;3.88;;;1.27;;
35993;SDS011;22066;54.274;18.578;2022-11-03T01:40:23;5.43;;;1.30;;
35993;SDS011;22066;54.274;18.578;2022-11-03T01:42:49;8.05;;;1.77;;
35993;SDS011;22066;54.274;18.578;2022-11-03T01:45:15;6.60;;;2.10;;
35993;SDS011;22066;54.274;18.578;2022-11-03T01:47:41;8.43;;;2.10;;
35993;SDS011;22066;54.274;18.578;2022-11-03T01:50:12;17.25;;;4.57;;
35993;SDS011;22066;54.274;18.578;2022-11-03T01:52:48;31.85;;;6.95;;
35993;SDS011;22066;54.274;18.578;2022-11-03T01:55:17;17.98;;;4.10;;
35993;SDS011;22066;54.274;18.578;2022-11-03T01:57:46;12.68;;;3.65;;
35993;SDS011;22066;54.274;18.578;2022-11-03T02:00:14;11.52;;;3.13;;
35993;SDS011;22066;54.274;18.578;2022-11-03T02:02:40;5.13;;;2.25;;
35993;SDS011;22066;54.274;18.578;2022-11-03T02:05:07;6.82;;;2.30;;
35993;SDS011;22066;54.274;18.578;2022-11-03T02:07:49;4.75;;;1.90;;
35993;SDS011;22066;54.274;18.578;2022-11-03T02:10:16;5.68;;;1.67;;
35993;SDS011;22066;54.274;18.578;2022-11-03T02:12:42;7.65;;;1.85;;
35993;SDS011;22066;54.274;18.578;2022-11-03T02:15:09;6.32;;;2.38;;
35993;SDS011;22066;54.274;18.578;2022-11-03T02:17:36;3.90;;;1.93;;
35993;SDS011;22066;54.274;18.578;2022-11-03T02:20:06;6.70;;;1.90;;
35993;SDS011;22066;54.274;18.578;2022-11-03T02:25:36;4.25;;;1.33;;
35993;SDS011;22066;54.274;18.578;2022-11-03T02:28:03;5.95;;;2.20;;
35993;SDS011;22066;54.274;18.578;2022-11-03T02:38:21;4.28;;;1.63;;
35993;SDS011;22066;54.274;18.578;2022-11-03T02:40:50;5.18;;;1.48;;
35993;SDS011;22066;54.274;18.578;2022-11-03T02:45:43;4.47;;;1.33;;
35993;SDS011;22066;54.274;18.578;2022-11-03T02:48:11;7.68;;;1.58;;
35993;SDS011;22066;54.274;18.578;2022-11-03T02:50:39;7.70;;;2.50;;
35993;SDS011;22066;54.274;18.578;2022-11-03T02:53:06;6.30;;;1.57;;
35993;SDS011;22066;54.274;18.578;2022-11-03T02:55:36;4.43;;;1.85;;
35993;SDS011;22066;54.274;18.578;2022-11-03T02:58:07;4.80;;;1.50;;
35993;SDS011;22066;54.274;18.578;2022-11-03T03:00:38;8.20;;;1.77;;
35993;SDS011;22066;54.274;18.578;2022-11-03T03:03:13;7.50;;;2.05;;
35993;SDS011;22066;54.274;18.578;2022-11-03T03:05:41;4.30;;;1.53;;
35993;SDS011;22066;54.274;18.578;2022-11-03T03:08:09;5.90;;;2.00;;
35993;SDS011;22066;54.274;18.578;2022-11-03T03:10:40;9.47;;;2.00;;
35993;SDS011;22066;54.274;18.578;2022-11-03T03:13:07;4.23;;;1.47;;
35993;SDS011;22066;54.274;18.578;2022-11-03T03:15:40;4.55;;;1.65;;
35993;SDS011;22066;54.274;18.578;2022-11-03T03:18:15;5.03;;;2.03;;
35993;SDS011;22066;54.274;18.578;2022-11-03T03:20:55;4.20;;;1.30;;
35993;SDS011;22066;54.274;18.578;2022-11-03T03:23:27;4.13;;;1.55;;
35993;SDS011;22066;54.274;18.578;2022-11-03T03:28:47;2.57;;;1.23;;
35993;SDS011;22066;54.274;18.578;2022-11-03T03:31:17;5.13;;;1.77;;
35993;SDS011;22066;54.274;18.578;2022-11-03T03:33:44;4.37;;;1.50;;
35993;SDS011;22066;54.274;18.578;2022-11-03T03:36:12;6.17;;;1.50;;
35993;SDS011;22066;54.274;18.578;2022-11-03T03:38:40;6.50;;;1.30;;
35993;SDS011;22066;54.274;18.578;2022-11-03T03:41:07;3.50;;;0.93;;
35993;SDS011;22066;54.274;18.578;2022-11-03T03:43:34;4.85;;;1.38;;
35993;SDS011;22066;54.274;18.578;2022-11-03T03:46:03;7.77;;;2.50;;
35993;SDS011;22066;54.274;18.578;2022-11-03T03:48:31;5.90;;;2.03;;
35993;SDS011;22066;54.274;18.578;2022-11-03T03:50:57;5.20;;;1.70;;
35993;SDS011;22066;54.274;18.578;2022-11-03T03:53:26;3.93;;;1.43;;
35993;SDS011;22066;54.274;18.578;2022-11-03T03:55:52;13.97;;;1.83;;
35993;SDS011;22066;54.274;18.578;2022-11-03T03:58:19;7.27;;;1.50;;
35993;SDS011;22066;54.274;18.578;2022-11-03T04:00:45;5.00;;;1.83;;
35993;SDS011;22066;54.274;18.578;2022-11-03T04:03:18;4.60;;;1.27;;
35993;SDS011;22066;54.274;18.578;2022-11-03T04:05:44;4.53;;;1.23;;
35993;SDS011;22066;54.274;18.578;2022-11-03T04:08:11;9.13;;;2.00;;
35993;SDS011;22066;54.274;18.578;2022-11-03T04:10:37;4.07;;;1.33;;
35993;SDS011;22066;54.274;18.578;2022-11-03T04:13:03;4.30;;;1.70;;
35993;SDS011;22066;54.274;18.578;2022-11-03T04:15:48;9.40;;;1.70;;
35993;SDS011;22066;54.274;18.578;2022-11-03T04:18:33;4.63;;;1.53;;
35993;SDS011;22066;54.274;18.578;2022-11-03T04:21:18;4.00;;;1.20;;
35993;SDS011;22066;54.274;18.578;2022-11-03T04:24:02;2.10;;;1.00;;
35993;SDS011;22066;54.274;18.578;2022-11-03T04:26:28;5.73;;;1.30;;
35993;SDS011;22066;54.274;18.578;2022-11-03T04:28:54;3.37;;;1.17;;
35993;SDS011;22066;54.274;18.578;2022-11-03T04:31:21;1.37;;;0.90;;
35993;SDS011;22066;54.274;18.578;2022-11-03T04:33:47;5.70;;;1.50;;
35993;SDS011;22066;54.274;18.578;2022-11-03T04:36:23;3.23;;;1.50;;
35993;SDS011;22066;54.274;18.578;2022-11-03T04:38:50;6.47;;;1.70;;
35993;SDS011;22066;54.274;18.578;2022-11-03T04:41:19;5.03;;;1.40;;
35993;SDS011;22066;54.274;18.578;2022-11-03T04:43:45;7.77;;;2.27;;
35993;SDS011;22066;54.274;18.578;2022-11-03T04:46:14;5.40;;;1.57;;
35993;SDS011;22066;54.274;18.578;2022-11-03T04:48:40;7.90;;;1.77;;
35993;SDS011;22066;54.274;18.578;2022-11-03T04:51:16;5.77;;;2.20;;
35993;SDS011;22066;54.274;18.578;2022-11-03T04:53:47;10.67;;;1.43;;
35993;SDS011;22066;54.274;18.578;2022-11-03T04:56:15;9.53;;;2.10;;
35993;SDS011;22066;54.274;18.578;2022-11-03T04:58:42;6.22;;;1.10;;
35993;SDS011;22066;54.274;18.578;2022-11-03T05:01:09;4.17;;;1.57;;
35993;SDS011;22066;54.274;18.578;2022-11-03T05:03:37;5.80;;;1.70;;
35993;SDS011;22066;54.274;18.578;2022-11-03T05:06:10;5.33;;;1.30;;
35993;SDS011;22066;54.274;18.578;2022-11-03T05:08:37;5.43;;;1.83;;
35993;SDS011;22066;54.274;18.578;2022-11-03T05:13:47;7.73;;;1.67;;
35993;SDS011;22066;54.274;18.578;2022-11-03T05:16:15;5.23;;;1.70;;
35993;SDS011;22066;54.274;18.578;2022-11-03T05:18:42;4.03;;;1.30;;
35993;SDS011;22066;54.274;18.578;2022-11-03T05:21:10;5.80;;;1.53;;
35993;SDS011;22066;54.274;18.578;2022-11-03T05:23:38;5.00;;;1.55;;
35993;SDS011;22066;54.274;18.578;2022-11-03T05:26:05;4.83;;;1.17;;
35993;SDS011;22066;54.274;18.578;2022-11-03T05:28:36;2.17;;;1.00;;
35993;SDS011;22066;54.274;18.578;2022-11-03T05:31:35;4.87;;;1.30;;
35993;SDS011;22066;54.274;18.578;2022-11-03T05:33:56;12.57;;;2.20;;
35993;SDS011;22066;54.274;18.578;2022-11-03T05:36:23;4.80;;;2.10;;
35993;SDS011;22066;54.274;18.578;2022-11-03T05:38:50;4.03;;;1.70;;
35993;SDS011;22066;54.274;18.578;2022-11-03T05:41:22;3.97;;;1.60;;
35993;SDS011;22066;54.274;18.578;2022-11-03T05:43:58;5.10;;;1.20;;
35993;SDS011;22066;54.274;18.578;2022-11-03T05:46:31;4.63;;;1.37;;
35993;SDS011;22066;54.274;18.578;2022-11-03T05:49:00;5.47;;;1.37;;
35993;SDS011;22066;54.274;18.578;2022-11-03T05:51:28;17.67;;;1.60;;
35993;SDS011;22066;54.274;18.578;2022-11-03T05:53:57;3.60;;;1.33;;
35993;SDS011;22066;54.274;18.578;2022-11-03T05:56:24;3.77;;;1.40;;
35993;SDS011;22066;54.274;18.578;2022-11-03T05:58:51;5.40;;;2.00;;
35993;SDS011;22066;54.274;18.578;2022-11-03T06:01:19;4.30;;;1.90;;
35993;SDS011;22066;54.274;18.578;2022-11-03T06:03:48;6.40;;;2.10;;
35993;SDS011;22066;54.274;18.578;2022-11-03T06:06:15;5.10;;;1.70;;
35993;SDS011;22066;54.274;18.578;2022-11-03T06:08:43;7.50;;;2.00;;
35993;SDS011;22066;54.274;18.578;2022-11-03T06:11:10;10.70;;;3.07;;
35993;SDS011;22066;54.274;18.578;2022-11-03T06:13:40;21.23;;;5.83;;
35993;SDS011;22066;54.274;18.578;2022-11-03T06:18:41;22.33;;;6.13;;
35993;SDS011;22066;54.274;18.578;2022-11-03T06:21:12;14.07;;;4.33;;
35993;SDS011;22066;54.274;18.578;2022-11-03T06:23:38;12.83;;;3.73;;
35993;SDS011;22066;54.274;18.578;2022-11-03T06:26:11;17.30;;;5.27;;
35993;SDS011;22066;54.274;18.578;2022-11-03T06:28:38;76.57;;;18.50;;
35993;SDS011;22066;54.274;18.578;2022-11-03T06:31:13;57.10;;;13.27;;
35993;SDS011;22066;54.274;18.578;2022-11-03T06:33:42;42.90;;;9.63;;
35993;SDS011;22066;54.274;18.578;2022-11-03T06:36:18;30.50;;;6.40;;
35993;SDS011;22066;54.274;18.578;2022-11-03T06:41:36;27.27;;;6.37;;
35993;SDS011;22066;54.274;18.578;2022-11-03T06:44:15;20.70;;;5.13;;
35993;SDS011;22066;54.274;18.578;2022-11-03T06:46:44;15.13;;;3.23;;
35993;SDS011;22066;54.274;18.578;2022-11-03T06:49:42;10.63;;;2.83;;
35993;SDS011;22066;54.274;18.578;2022-11-03T06:52:06;7.53;;;2.73;;
35993;SDS011;22066;54.274;18.578;2022-11-03T06:54:39;7.22;;;2.60;;
35993;SDS011;22066;54.274;18.578;2022-11-03T06:57:09;6.87;;;2.13;;
35993;SDS011;22066;54.274;18.578;2022-11-03T06:59:36;7.60;;;2.87;;
35993;SDS011;22066;54.274;18.578;2022-11-03T07:02:02;9.07;;;2.40;;
35993;SDS011;22066;54.274;18.578;2022-11-03T07:04:30;4.28;;;2.17;;
35993;SDS011;22066;54.274;18.578;2022-11-03T07:06:58;9.53;;;2.50;;
35993;SDS011;22066;54.274;18.578;2022-11-03T07:09:24;5.82;;;2.25;;
35993;SDS011;22066;54.274;18.578;2022-11-03T07:11:57;17.30;;;3.10;;
35993;SDS011;22066;54.274;18.578;2022-11-03T07:14:24;7.90;;;2.87;;
35993;SDS011;22066;54.274;18.578;2022-11-03T07:19:18;10.87;;;3.63;;
35993;SDS011;22066;54.274;18.578;2022-11-03T07:21:50;18.97;;;4.90;;
35993;SDS011;22066;54.274;18.578;2022-11-03T07:24:22;21.03;;;6.60;;
35993;SDS011;22066;54.274;18.578;2022-11-03T07:29:24;20.10;;;5.60;;
35993;SDS011;22066;54.274;18.578;2022-11-03T07:31:52;29.27;;;6.90;;
35993;SDS011;22066;54.274;18.578;2022-11-03T07:34:19;21.77;;;6.90;;
35993;SDS011;22066;54.274;18.578;2022-11-03T07:36:46;18.45;;;6.97;;
35993;SDS011;22066;54.274;18.578;2022-11-03T07:39:15;18.90;;;7.55;;
35993;SDS011;22066;54.274;18.578;2022-11-03T07:41:42;20.75;;;7.00;;
35993;SDS011;22066;54.274;18.578;2022-11-03T07:44:12;23.15;;;5.13;;
35993;SDS011;22066;54.274;18.578;2022-11-03T07:46:39;21.10;;;5.45;;
35993;SDS011;22066;54.274;18.578;2022-11-03T07:49:07;13.32;;;5.97;;
35993;SDS011;22066;54.274;18.578;2022-11-03T07:51:36;10.15;;;2.80;;
35993;SDS011;22066;54.274;18.578;2022-11-03T07:54:10;8.55;;;2.40;;
35993;SDS011;22066;54.274;18.578;2022-11-03T07:56:38;17.13;;;3.35;;
35993;SDS011;22066;54.274;18.578;2022-11-03T08:01:52;11.63;;;3.13;;
35993;SDS011;22066;54.274;18.578;2022-11-03T08:06:44;11.85;;;2.75;;
35993;SDS011;22066;54.274;18.578;2022-11-03T08:09:10;7.97;;;2.97;;
35993;SDS011;22066;54.274;18.578;2022-11-03T08:11:36;9.90;;;3.58;;
35993;SDS011;22066;54.274;18.578;2022-11-03T08:14:02;11.55;;;2.83;;
35993;SDS011;22066;54.274;18.578;2022-11-03T08:16:28;9.50;;;3.15;;
35993;SDS011;22066;54.274;18.578;2022-11-03T08:18:54;7.57;;;3.33;;
35993;SDS011;22066;54.274;18.578;2022-11-03T08:21:20;14.45;;;2.60;;
35993;SDS011;22066;54.274;18.578;2022-11-03T08:23:46;9.38;;;3.28;;
35993;SDS011;22066;54.274;18.578;2022-11-03T08:26:13;8.18;;;2.33;;
35993;SDS011;22066;54.274;18.578;2022-11-03T08:28:39;8.68;;;3.05;;
35993;SDS011;22066;54.274;18.578;2022-11-03T08:31:05;8.30;;;2.25;;
35993;SDS011;22066;54.274;18.578;2022-11-03T08:33:31;9.18;;;2.60;;
35993;SDS011;22066;54.274;18.578;2022-11-03T08:35:57;7.38;;;2.10;;
35993;SDS011;22066;54.274;18.578;2022-11-03T08:38:23;11.80;;;2.75;;
35993;SDS011;22066;54.274;18.578;2022-11-03T08:40:50;9.82;;;2.42;;
35993;SDS011;22066;54.274;18.578;2022-11-03T08:43:16;8.13;;;2.58;;
35993;SDS011;22066;54.274;18.578;2022-11-03T08:45:42;10.85;;;2.63;;
35993;SDS011;22066;54.274;18.578;2022-11-03T08:48:08;7.32;;;1.65;;
35993;SDS011;22066;54.274;18.578;2022-11-03T08:50:34;10.57;;;3.60;;
35993;SDS011;22066;54.274;18.578;2022-11-03T08:53:00;11.30;;;2.08;;
35993;SDS011;22066;54.274;18.578;2022-11-03T08:55:26;7.57;;;1.80;;
35993;SDS011;22066;54.274;18.578;2022-11-03T08:57:52;8.73;;;2.60;;
35993;SDS011;22066;54.274;18.578;2022-11-03T09:00:18;7.38;;;2.30;;
35993;SDS011;22066;54.274;18.578;2022-11-03T09:02:44;8.63;;;2.20;;
35993;SDS011;22066;54.274;18.578;2022-11-03T09:05:13;6.40;;;1.83;;
35993;SDS011;22066;54.274;18.578;2022-11-03T09:07:39;11.32;;;2.90;;
35993;SDS011;22066;54.274;18.578;2022-11-03T09:10:06;6.43;;;2.10;;
35993;SDS011;22066;54.274;18.578;2022-11-03T09:12:32;17.65;;;6.35;;
35993;SDS011;22066;54.274;18.578;2022-11-03T09:14:58;11.80;;;4.45;;
35993;SDS011;22066;54.274;18.578;2022-11-03T09:17:24;10.85;;;4.18;;
35993;SDS011;22066;54.274;18.578;2022-11-03T09:19:50;6.13;;;2.15;;
35993;SDS011;22066;54.274;18.578;2022-11-03T09:22:16;10.25;;;2.53;;
35993;SDS011;22066;54.274;18.578;2022-11-03T09:24:42;6.75;;;1.75;;
35993;SDS011;22066;54.274;18.578;2022-11-03T09:27:09;11.13;;;2.45;;
35993;SDS011;22066;54.274;18.578;2022-11-03T09:29:35;11.60;;;2.60;;
35993;SDS011;22066;54.274;18.578;2022-11-03T09:32:01;7.97;;;2.10;;
35993;SDS011;22066;54.274;18.578;2022-11-03T09:34:27;15.68;;;4.07;;
35993;SDS011;22066;54.274;18.578;2022-11-03T09:36:54;9.38;;;2.90;;
35993;SDS011;22066;54.274;18.578;2022-11-03T09:39:20;8.10;;;2.15;;
35993;SDS011;22066;54.274;18.578;2022-11-03T09:41:46;9.52;;;2.63;;
35993;SDS011;22066;54.274;18.578;2022-11-03T09:44:12;8.63;;;2.00;;
35993;SDS011;22066;54.274;18.578;2022-11-03T09:46:38;6.88;;;1.67;;
35993;SDS011;22066;54.274;18.578;2022-11-03T09:49:04;8.25;;;1.73;;
35993;SDS011;22066;54.274;18.578;2022-11-03T09:51:31;8.10;;;2.13;;
35993;SDS011;22066;54.274;18.578;2022-11-03T09:53:57;7.47;;;2.35;;
35993;SDS011;22066;54.274;18.578;2022-11-03T09:56:26;10.23;;;1.83;;
35993;SDS011;22066;54.274;18.578;2022-11-03T09:58:52;7.53;;;1.75;;
35993;SDS011;22066;54.274;18.578;2022-11-03T10:01:18;15.27;;;1.80;;
35993;SDS011;22066;54.274;18.578;2022-11-03T10:03:44;9.50;;;2.47;;
35993;SDS011;22066;54.274;18.578;2022-11-03T10:06:10;8.88;;;1.63;;
35993;SDS011;22066;54.274;18.578;2022-11-03T10:08:37;7.95;;;1.27;;
35993;SDS011;22066;54.274;18.578;2022-11-03T10:11:06;9.50;;;2.20;;
35993;SDS011;22066;54.274;18.578;2022-11-03T10:13:34;7.97;;;1.98;;
35993;SDS011;22066;54.274;18.578;2022-11-03T10:16:01;7.60;;;2.53;;
35993;SDS011;22066;54.274;18.578;2022-11-03T10:18:29;7.80;;;1.52;;
35993;SDS011;22066;54.274;18.578;2022-11-03T10:20:55;8.02;;;1.70;;
35993;SDS011;22066;54.274;18.578;2022-11-03T10:23:23;16.70;;;2.85;;
35993;SDS011;22066;54.274;18.578;2022-11-03T10:25:49;12.90;;;2.28;;
35993;SDS011;22066;54.274;18.578;2022-11-03T10:28:24;6.82;;;1.95;;
35993;SDS011;22066;54.274;18.578;2022-11-03T10:30:57;9.77;;;1.80;;
35993;SDS011;22066;54.274;18.578;2022-11-03T10:35:49;9.70;;;2.08;;
35993;SDS011;22066;54.274;18.578;2022-11-03T10:38:19;7.88;;;2.55;;
35993;SDS011;22066;54.274;18.578;2022-11-03T10:40:46;16.00;;;3.05;;
35993;SDS011;22066;54.274;18.578;2022-11-03T10:43:12;7.43;;;1.60;;
35993;SDS011;22066;54.274;18.578;2022-11-03T10:45:38;6.40;;;1.52;;
35993;SDS011;22066;54.274;18.578;2022-11-03T10:48:04;10.68;;;2.08;;
35993;SDS011;22066;54.274;18.578;2022-11-03T10:50:32;6.10;;;1.90;;
35993;SDS011;22066;54.274;18.578;2022-11-03T10:52:58;6.07;;;1.73;;
35993;SDS011;22066;54.274;18.578;2022-11-03T10:55:24;11.43;;;2.13;;
35993;SDS011;22066;54.274;18.578;2022-11-03T10:57:51;11.25;;;2.53;;
35993;SDS011;22066;54.274;18.578;2022-11-03T11:00:19;8.35;;;2.08;;
35993;SDS011;22066;54.274;18.578;2022-11-03T11:02:46;11.35;;;2.38;;
35993;SDS011;22066;54.274;18.578;2022-11-03T11:07:39;20.00;;;5.70;;
35993;SDS011;22066;54.274;18.578;2022-11-03T11:12:32;11.15;;;2.55;;
35993;SDS011;22066;54.274;18.578;2022-11-03T11:14:59;4.50;;;1.98;;
35993;SDS011;22066;54.274;18.578;2022-11-03T11:17:44;8.98;;;2.10;;
35993;SDS011;22066;54.274;18.578;2022-11-03T11:22:43;7.80;;;2.33;;
35993;SDS011;22066;54.274;18.578;2022-11-03T11:25:09;9.07;;;2.00;;
35993;SDS011;22066;54.274;18.578;2022-11-03T11:30:03;6.35;;;1.63;;
35993;SDS011;22066;54.274;18.578;2022-11-03T11:35:01;5.55;;;1.60;;
35993;SDS011;22066;54.274;18.578;2022-11-03T11:39:55;11.32;;;2.28;;
35993;SDS011;22066;54.274;18.578;2022-11-03T11:42:21;9.95;;;2.95;;
35993;SDS011;22066;54.274;18.578;2022-11-03T11:44:51;10.15;;;4.18;;
35993;SDS011;22066;54.274;18.578;2022-11-03T11:52:51;8.48;;;2.55;;
35993;SDS011;22066;54.274;18.578;2022-11-03T11:57:51;8.88;;;2.90;;
35993;SDS011;22066;54.274;18.578;2022-11-03T12:00:25;12.43;;;3.22;;
35993;SDS011;22066;54.274;18.578;2022-11-03T12:02:52;7.53;;;2.80;;
35993;SDS011;22066;54.274;18.578;2022-11-03T12:05:28;4.88;;;2.38;;
35993;SDS011;22066;54.274;18.578;2022-11-03T12:07:55;6.40;;;2.40;;
35993;SDS011;22066;54.274;18.578;2022-11-03T12:10:25;10.65;;;2.65;;
35993;SDS011;22066;54.274;18.578;2022-11-03T12:12:51;6.40;;;2.90;;
35993;SDS011;22066;54.274;18.578;2022-11-03T12:18:27;8.35;;;2.55;;
35993;SDS011;22066;54.274;18.578;2022-11-03T12:20:48;8.77;;;2.40;;
35993;SDS011;22066;54.274;18.578;2022-11-03T12:25:59;7.82;;;2.85;;
35993;SDS011;22066;54.274;18.578;2022-11-03T12:28:29;8.55;;;2.58;;
35993;SDS011;22066;54.274;18.578;2022-11-03T12:30:55;7.10;;;2.45;;
35993;SDS011;22066;54.274;18.578;2022-11-03T12:33:21;8.95;;;2.47;;
35993;SDS011;22066;54.274;18.578;2022-11-03T12:35:47;6.00;;;1.92;;
35993;SDS011;22066;54.274;18.578;2022-11-03T12:38:13;9.10;;;2.15;;
35993;SDS011;22066;54.274;18.578;2022-11-03T12:40:39;12.10;;;2.03;;
35993;SDS011;22066;54.274;18.578;2022-11-03T12:43:05;10.43;;;2.10;;
35993;SDS011;22066;54.274;18.578;2022-11-03T12:45:31;10.15;;;2.15;;
35993;SDS011;22066;54.274;18.578;2022-11-03T12:47:57;6.97;;;1.80;;
35993;SDS011;22066;54.274;18.578;2022-11-03T12:50:23;6.45;;;2.15;;
35993;SDS011;22066;54.274;18.578;2022-11-03T12:52:49;6.55;;;2.78;;
35993;SDS011;22066;54.274;18.578;2022-11-03T12:55:15;7.53;;;2.20;;
35993;SDS011;22066;54.274;18.578;2022-11-03T12:57:41;6.95;;;1.85;;
35993;SDS011;22066;54.274;18.578;2022-11-03T13:02:36;4.68;;;1.42;;
35993;SDS011;22066;54.274;18.578;2022-11-03T13:05:02;6.70;;;1.98;;
35993;SDS011;22066;54.274;18.578;2022-11-03T13:07:29;4.50;;;1.80;;
35993;SDS011;22066;54.274;18.578;2022-11-03T13:09:55;9.88;;;2.70;;
35993;SDS011;22066;54.274;18.578;2022-11-03T13:12:21;6.60;;;1.70;;
35993;SDS011;22066;54.274;18.578;2022-11-03T13:14:59;9.50;;;2.30;;
35993;SDS011;22066;54.274;18.578;2022-11-03T13:17:25;10.25;;;1.92;;
35993;SDS011;22066;54.274;18.578;2022-11-03T13:19:52;5.35;;;1.98;;
35993;SDS011;22066;54.274;18.578;2022-11-03T13:22:18;6.47;;;1.90;;
35993;SDS011;22066;54.274;18.578;2022-11-03T13:24:44;8.82;;;2.53;;
35993;SDS011;22066;54.274;18.578;2022-11-03T13:27:10;5.97;;;1.88;;
35993;SDS011;22066;54.274;18.578;2022-11-03T13:29:36;7.75;;;2.00;;
35993;SDS011;22066;54.274;18.578;2022-11-03T13:32:03;7.75;;;2.05;;
35993;SDS011;22066;54.274;18.578;2022-11-03T13:34:29;6.13;;;1.90;;
35993;SDS011;22066;54.274;18.578;2022-11-03T13:36:55;8.50;;;2.67;;
35993;SDS011;22066;54.274;18.578;2022-11-03T13:39:22;8.85;;;2.03;;
35993;SDS011;22066;54.274;18.578;2022-11-03T13:41:48;8.27;;;2.38;;
35993;SDS011;22066;54.274;18.578;2022-11-03T13:44:14;7.57;;;2.25;;
35993;SDS011;22066;54.274;18.578;2022-11-03T13:46:40;7.40;;;1.85;;
35993;SDS011;22066;54.274;18.578;2022-11-03T13:49:06;8.52;;;2.53;;
35993;SDS011;22066;54.274;18.578;2022-11-03T13:51:32;10.43;;;3.03;;
35993;SDS011;22066;54.274;18.578;2022-11-03T13:53:58;6.55;;;2.42;;
35993;SDS011;22066;54.274;18.578;2022-11-03T13:56:24;9.68;;;2.72;;
35993;SDS011;22066;54.274;18.578;2022-11-03T13:58:50;8.23;;;2.90;;
35993;SDS011;22066;54.274;18.578;2022-11-03T14:01:16;17.55;;;3.85;;
35993;SDS011;22066;54.274;18.578;2022-11-03T14:03:42;5.50;;;2.33;;
35993;SDS011;22066;54.274;18.578;2022-11-03T14:06:09;7.75;;;2.78;;
35993;SDS011;22066;54.274;18.578;2022-11-03T14:08:35;10.57;;;2.60;;
35993;SDS011;22066;54.274;18.578;2022-11-03T14:11:01;7.22;;;2.30;;
35993;SDS011;22066;54.274;18.578;2022-11-03T14:13:47;6.47;;;2.25;;
35993;SDS011;22066;54.274;18.578;2022-11-03T14:16:13;9.07;;;2.70;;
35993;SDS011;22066;54.274;18.578;2022-11-03T14:18:39;15.43;;;3.28;;
35993;SDS011;22066;54.274;18.578;2022-11-03T14:21:05;6.65;;;2.13;;
35993;SDS011;22066;54.274;18.578;2022-11-03T14:23:31;11.40;;;3.17;;
35993;SDS011;22066;54.274;18.578;2022-11-03T14:25:57;5.97;;;2.42;;
35993;SDS011;22066;54.274;18.578;2022-11-03T14:28:23;8.35;;;3.33;;
35993;SDS011;22066;54.274;18.578;2022-11-03T14:30:49;5.85;;;2.72;;
35993;SDS011;22066;54.274;18.578;2022-11-03T14:33:15;9.63;;;3.50;;
35993;SDS011;22066;54.274;18.578;2022-11-03T14:35:41;6.75;;;2.63;;
35993;SDS011;22066;54.274;18.578;2022-11-03T14:38:07;15.00;;;3.45;;
35993;SDS011;22066;54.274;18.578;2022-11-03T14:40:33;14.40;;;3.00;;
35993;SDS011;22066;54.274;18.578;2022-11-03T14:43:17;8.55;;;2.60;;
35993;SDS011;22066;54.274;18.578;2022-11-03T14:45:43;10.25;;;3.03;;
35993;SDS011;22066;54.274;18.578;2022-11-03T14:48:09;15.45;;;4.03;;
35993;SDS011;22066;54.274;18.578;2022-11-03T14:50:35;6.53;;;2.78;;
35993;SDS011;22066;54.274;18.578;2022-11-03T14:53:01;8.82;;;3.13;;
35993;SDS011;22066;54.274;18.578;2022-11-03T14:55:27;14.35;;;3.65;;
35993;SDS011;22066;54.274;18.578;2022-11-03T14:57:53;12.20;;;3.65;;
35993;SDS011;22066;54.274;18.578;2022-11-03T15:00:19;15.50;;;4.30;;
35993;SDS011;22066;54.274;18.578;2022-11-03T15:02:45;13.27;;;4.85;;
35993;SDS011;22066;54.274;18.578;2022-11-03T15:05:11;11.25;;;3.45;;
35993;SDS011;22066;54.274;18.578;2022-11-03T15:07:57;12.13;;;3.72;;
35993;SDS011;22066;54.274;18.578;2022-11-03T15:10:23;17.77;;;4.95;;
35993;SDS011;22066;54.274;18.578;2022-11-03T15:12:49;12.07;;;5.10;;
35993;SDS011;22066;54.274;18.578;2022-11-03T15:15:15;9.68;;;4.70;;
35993;SDS011;22066;54.274;18.578;2022-11-03T15:17:41;22.95;;;4.75;;
35993;SDS011;22066;54.274;18.578;2022-11-03T15:20:08;17.52;;;4.60;;
35993;SDS011;22066;54.274;18.578;2022-11-03T15:22:34;14.35;;;5.07;;
35993;SDS011;22066;54.274;18.578;2022-11-03T15:25:00;20.02;;;6.13;;
35993;SDS011;22066;54.274;18.578;2022-11-03T15:27:26;14.52;;;5.85;;
35993;SDS011;22066;54.274;18.578;2022-11-03T15:29:52;18.98;;;5.45;;
35993;SDS011;22066;54.274;18.578;2022-11-03T15:32:18;16.33;;;5.78;;
35993;SDS011;22066;54.274;18.578;2022-11-03T15:34:44;14.38;;;4.90;;
35993;SDS011;22066;54.274;18.578;2022-11-03T15:37:10;9.98;;;3.83;;
35993;SDS011;22066;54.274;18.578;2022-11-03T15:39:36;14.57;;;4.70;;
35993;SDS011;22066;54.274;18.578;2022-11-03T15:42:02;13.50;;;4.35;;
35993;SDS011;22066;54.274;18.578;2022-11-03T15:44:28;22.83;;;6.60;;
35993;SDS011;22066;54.274;18.578;2022-11-03T15:46:54;15.45;;;6.80;;